Augusta, New York
Current Conditions -  °F | °C
As of 3:42 PM on Thursday 27 Nov 2014 (Local Time) from KRME Reporting Station
Light Snow Light Snow  
Wind Chill: -2°   Ceiling: 1000
Heat Index: -2°   Visibility: 1.2mi
Dew Point: -3°   Wind: 3mph
Humidity: 96%   Direction: 290°WNW
Pressure: 30.04"   Gusts: NA
Location:  42.9771°N, 75.5023°W
Report Text: KRME 272042Z 29003KT 1 1/4SM -SN BR SCT006 BKN010 OVC020 M02/M03 A3004 RMK AO2 CIG 008V013 P0002 T10221028
Loading
Personal Weather Stations






























Interactive Weather Map New forecast layout! Learn more

10-Day Weather Forecast

Advertisements
Track Severe Weather on mobile